createdAt,value
2023-05-01T00:01:32.572Z,100756.02
2023-05-01T00:03:38.159Z,100748.66
2023-05-01T00:05:43.638Z,100749.09
2023-05-01T00:07:48.646Z,100751.63
2023-05-01T00:09:53.847Z,100749.16
2023-05-01T00:11:59.206Z,100746.61
2023-05-01T00:14:04.242Z,100748.52
2023-05-01T00:16:09.348Z,100746.64
2023-05-01T00:18:14.820Z,100739.17
2023-05-01T00:20:20.151Z,100739.48
2023-05-01T00:22:25.188Z,100745.28
2023-05-01T00:24:30.307Z,100739.92
2023-05-01T00:26:35.418Z,100740.53
2023-05-01T00:28:40.483Z,100738.49
2023-05-01T00:30:45.602Z,100738.91
2023-05-01T00:32:50.664Z,100734.54
2023-05-01T00:34:55.883Z,100731.41
2023-05-01T00:37:00.934Z,100735.5
2023-05-01T00:39:06.035Z,100732.64
2023-05-01T00:41:11.187Z,100734
2023-05-01T00:43:16.224Z,100735.47
2023-05-01T00:45:21.239Z,100732.2
2023-05-01T00:47:26.501Z,100733.63
2023-05-01T00:49:31.568Z,100730.94
2023-05-01T00:51:36.548Z,100730.3
2023-05-01T00:53:41.567Z,100727.3
2023-05-01T00:55:46.579Z,100720.98
2023-05-01T00:57:51.818Z,100720.34
2023-05-01T00:59:57.410Z,100722.41
2023-05-01T01:02:02.712Z,100720.75
2023-05-01T01:04:07.954Z,100719.72
2023-05-01T01:06:13.149Z,100717.55
2023-05-01T01:08:18.310Z,100716.52
2023-05-01T01:10:23.436Z,100715.6
2023-05-01T01:12:28.502Z,100719.42
2023-05-01T01:14:33.602Z,100710.42
2023-05-01T01:16:38.757Z,100709.94
2023-05-01T01:18:43.869Z,100708.61
2023-05-01T01:20:49.027Z,100708.34
2023-05-01T01:22:54.025Z,100706.94
2023-05-01T01:24:59.167Z,100705.52
2023-05-01T01:27:04.357Z,100700.3
2023-05-01T01:29:09.383Z,100697.33
2023-05-01T01:31:14.518Z,100698.52
2023-05-01T01:33:19.678Z,100703.78
2023-05-01T01:35:24.929Z,100699.45
2023-05-01T01:37:30.035Z,100695.53
2023-05-01T01:39:35.192Z,100694.23
2023-05-01T01:41:40.206Z,100698.27
2023-05-01T01:43:45.358Z,100698.61
2023-05-01T01:45:50.533Z,100693.7
2023-05-01T01:47:55.773Z,100690.42
2023-05-01T01:50:00.909Z,100690.12
2023-05-01T01:52:05.901Z,100695.64
2023-05-01T01:54:11.091Z,100694.01
2023-05-01T01:56:16.168Z,100693.84
2023-05-01T01:58:21.204Z,100695.88
2023-05-01T02:00:26.272Z,100699.53
2023-05-01T02:02:31.486Z,100695.69
2023-05-01T02:04:36.713Z,100698.41
2023-05-01T02:06:41.898Z,100691.59
2023-05-01T02:08:47.183Z,100694.91
2023-05-01T02:10:52.260Z,100690.27
2023-05-01T02:12:57.375Z,100689.8
2023-05-01T02:15:02.408Z,100683.66
2023-05-01T02:17:07.467Z,100683.45
2023-05-01T02:19:12.510Z,100681.95
2023-05-01T02:21:17.558Z,100679.39
2023-05-01T02:23:22.622Z,100676.47
2023-05-01T02:25:30.448Z,100672.65
2023-05-01T02:27:35.518Z,100679.57
2023-05-01T02:29:40.549Z,100676.4
2023-05-01T02:31:45.708Z,100668.94
2023-05-01T02:33:50.904Z,100658.88
2023-05-01T02:35:56.162Z,100666.69
2023-05-01T02:38:01.380Z,100670.03
2023-05-01T02:40:06.391Z,100669.14
2023-05-01T02:42:11.437Z,100666.42
2023-05-01T02:44:16.615Z,100670.55
2023-05-01T02:46:21.999Z,100668.98
2023-05-01T02:48:27.259Z,100667.85
2023-05-01T02:50:32.350Z,100661.95
2023-05-01T02:52:37.524Z,100661.99
2023-05-01T02:54:42.546Z,100657.28
2023-05-01T02:56:47.573Z,100661.78
2023-05-01T02:58:52.719Z,100660.94
2023-05-01T03:00:57.855Z,100661.04
2023-05-01T03:03:03.148Z,100659.74
2023-05-01T03:05:08.388Z,100667.72
2023-05-01T03:07:13.487Z,100666.56
2023-05-01T03:09:18.581Z,100660.22
2023-05-01T03:11:23.617Z,100661.24
2023-05-01T03:13:28.672Z,100660.15
2023-05-01T03:15:33.689Z,100662.33
2023-05-01T03:17:38.896Z,100664.14
2023-05-01T03:19:44.104Z,100656.64
2023-05-01T03:21:49.177Z,100652.31
2023-05-01T03:23:54.272Z,100653.84
2023-05-01T03:25:59.399Z,100654.63
2023-05-01T03:28:04.571Z,100653.95
2023-05-01T03:30:09.622Z,100652.89
2023-05-01T03:32:14.937Z,100661.27
2023-05-01T03:34:20.278Z,100658.48
2023-05-01T03:36:25.295Z,100652.28
2023-05-01T03:40:06.408Z,100655.95
2023-05-01T03:42:11.601Z,100660.14
2023-05-01T03:44:16.626Z,100661.58
2023-05-01T03:46:21.814Z,100657.8
2023-05-01T03:48:27.012Z,100656.33
2023-05-01T03:50:32.069Z,100655.38
2023-05-01T03:52:37.207Z,100653.57
2023-05-01T03:54:42.429Z,100650.84
2023-05-01T03:56:47.480Z,100653.5
2023-05-01T03:58:52.598Z,100653.09
2023-05-01T04:00:57.616Z,100654.89
2023-05-01T04:03:03.550Z,100650.91
2023-05-01T04:05:08.972Z,100646.34
2023-05-01T04:07:14.025Z,100646.89
2023-05-01T04:09:19.174Z,100647.64
2023-05-01T04:11:24.348Z,100645.97
2023-05-01T04:13:29.458Z,100640.93
2023-05-01T04:15:34.570Z,100646.92
2023-05-01T04:17:39.774Z,100642.49
2023-05-01T04:19:44.949Z,100641.13
2023-05-01T04:21:49.942Z,100636.91
2023-05-01T04:23:54.997Z,100635.58
2023-05-01T04:26:00.036Z,100636.05
2023-05-01T04:28:05.122Z,100638.84
2023-05-01T04:30:10.268Z,100639.3
2023-05-01T04:32:15.384Z,100640.34
2023-05-01T04:34:20.598Z,100639.59
2023-05-01T04:36:25.749Z,100640.95
2023-05-01T04:38:30.906Z,100640.89
2023-05-01T04:40:35.915Z,100640.11
2023-05-01T04:42:41.035Z,100638.81
2023-05-01T04:44:46.117Z,100637.55
2023-05-01T04:46:51.381Z,100644.56
2023-05-01T04:48:56.602Z,100643.23
2023-05-01T04:51:01.665Z,100643.75
2023-05-01T04:53:06.687Z,100640.24
2023-05-01T04:55:11.813Z,100637.14
2023-05-01T04:57:16.920Z,100634.63
2023-05-01T04:59:22.164Z,100637.41
2023-05-01T05:01:27.412Z,100636.16
2023-05-01T05:03:32.994Z,100634.38
2023-05-01T05:05:38.272Z,100640.62
2023-05-01T05:07:43.257Z,100645.18
2023-05-01T05:09:48.324Z,100643.41
2023-05-01T05:11:53.773Z,100642.42
2023-05-01T05:13:58.797Z,100643.55
2023-05-01T05:16:03.976Z,100634.97
2023-05-01T05:18:09.378Z,100631.35
2023-05-01T05:20:14.578Z,100632
2023-05-01T05:22:19.614Z,100633.05
2023-05-01T05:24:24.776Z,100631.52
2023-05-01T05:26:29.905Z,100626.23
2023-05-01T05:28:35.020Z,100627.5
2023-05-01T05:30:40.291Z,100619.73
2023-05-01T05:32:45.546Z,100620.18
2023-05-01T05:34:50.646Z,100625.22
2023-05-01T05:36:55.740Z,100618.75
2023-05-01T05:39:00.975Z,100626.14
2023-05-01T05:41:06.017Z,100623.25
2023-05-01T05:43:11.066Z,100625.22
2023-05-01T05:45:16.508Z,100622.77
2023-05-01T05:47:21.645Z,100623.42
2023-05-01T05:49:26.787Z,100626.83
2023-05-01T05:51:31.790Z,100624.41
2023-05-01T05:53:36.953Z,100620.9
2023-05-01T05:55:42.027Z,100619.88
2023-05-01T05:57:47.096Z,100622.5
2023-05-01T05:59:52.127Z,100619.13
2023-05-01T06:01:57.152Z,100629.07
2023-05-01T06:04:02.803Z,100628.77
2023-05-01T06:06:08.128Z,100626.85
2023-05-01T06:08:13.765Z,100624.84
2023-05-01T06:10:18.781Z,100630.75
2023-05-01T06:12:24.429Z,100621.72
2023-05-01T06:14:30.234Z,100620.02
2023-05-01T06:16:35.392Z,100616.6
2023-05-01T06:18:40.426Z,100617.63
2023-05-01T06:20:47.593Z,100620.89
2023-05-01T06:22:52.594Z,100618.27
2023-05-01T06:24:57.825Z,100616.8
2023-05-01T06:27:02.959Z,100621.25
2023-05-01T06:29:08.005Z,100619.98
2023-05-01T06:31:13.246Z,100613.78
2023-05-01T06:33:18.504Z,100615.08
2023-05-01T06:35:23.565Z,100612.88
2023-05-01T06:37:28.720Z,100608.76
2023-05-01T06:39:33.956Z,100607.33
2023-05-01T06:41:39.125Z,100613.06
2023-05-01T06:43:44.297Z,100608.29
2023-05-01T06:45:49.426Z,100606.69
2023-05-01T06:47:54.655Z,100602.98
2023-05-01T06:50:00.509Z,100612.48
2023-05-01T06:52:09.290Z,100616.71
2023-05-01T06:54:14.361Z,100608.13
2023-05-01T06:56:19.451Z,100595.19
2023-05-01T06:58:25.884Z,100602.17
2023-05-01T07:00:31.073Z,100600.63
2023-05-01T07:02:36.410Z,100607.41
2023-05-01T07:04:42.380Z,100595.28
2023-05-01T07:06:47.665Z,100585.54
2023-05-01T07:08:52.865Z,100594.36
2023-05-01T07:10:57.873Z,100593.52
2023-05-01T07:13:03.061Z,100592.73
2023-05-01T07:15:08.110Z,100591.5
2023-05-01T07:17:13.213Z,100586.83
2023-05-01T07:19:18.311Z,100588.8
2023-05-01T07:21:23.391Z,100603.22
2023-05-01T07:23:28.486Z,100581.45
2023-05-01T07:25:33.661Z,100587.17
2023-05-01T07:27:38.734Z,100583.23
2023-05-01T07:29:43.850Z,100576.86
2023-05-01T07:31:49.088Z,100588.75
2023-05-01T07:33:55.520Z,100590.04
2023-05-01T07:36:00.657Z,100577.23
2023-05-01T07:38:05.803Z,100581.66
2023-05-01T07:40:11.143Z,100587.41
2023-05-01T07:42:16.182Z,100595.94
2023-05-01T07:44:21.381Z,100571.75
2023-05-01T07:46:26.772Z,100584.93
2023-05-01T07:48:31.966Z,100577.3
2023-05-01T07:50:37.285Z,100586.09
2023-05-01T07:52:42.662Z,100578.63
2023-05-01T07:54:47.753Z,100577.5
2023-05-01T07:56:52.784Z,100582.38
2023-05-01T07:58:57.989Z,100579.72
2023-05-01T08:01:03.372Z,100565.65
2023-05-01T08:03:09.015Z,100573.58
2023-05-01T08:05:14.520Z,100570.58
2023-05-01T08:07:19.628Z,100572.73
2023-05-01T08:09:24.736Z,100566.56
2023-05-01T08:11:29.821Z,100569.45
2023-05-01T08:13:34.939Z,100568.36
2023-05-01T08:15:40.156Z,100566.48
2023-05-01T08:17:45.417Z,100564.47
2023-05-01T08:19:50.849Z,100561.91
2023-05-01T08:21:56.074Z,100553.05
2023-05-01T08:24:01.203Z,100565.78
2023-05-01T08:26:06.306Z,100550.18
2023-05-01T08:28:11.526Z,100549.19
2023-05-01T08:30:16.603Z,100548.27
2023-05-01T08:32:21.640Z,100552.53
2023-05-01T08:34:26.719Z,100548.16
2023-05-01T08:36:31.828Z,100553.31
2023-05-01T08:38:36.969Z,100547.11
2023-05-01T08:40:42.586Z,100558.23
2023-05-01T08:42:47.797Z,100552.47
2023-05-01T08:44:52.892Z,100546.2
2023-05-01T08:46:58.093Z,100540.09
2023-05-01T08:49:03.213Z,100547.86
2023-05-01T08:51:08.328Z,100549.43
2023-05-01T08:53:13.410Z,100542.65
2023-05-01T08:55:18.653Z,100546.09
2023-05-01T08:57:23.812Z,100532.02
2023-05-01T08:59:28.997Z,100538.77
2023-05-01T09:01:34.286Z,100531.59
2023-05-01T09:03:39.553Z,100525.96
2023-05-01T09:05:44.671Z,100521.73
2023-05-01T09:07:49.774Z,100518.63
2023-05-01T09:09:55.225Z,100527.38
2023-05-01T09:12:00.860Z,100514.44
2023-05-01T09:14:05.998Z,100516.92
2023-05-01T09:16:11.359Z,100513.05
2023-05-01T09:18:16.766Z,100500.27
2023-05-01T09:20:22.192Z,100499.13
2023-05-01T09:22:27.221Z,100510.88
2023-05-01T09:24:32.242Z,100500.13
2023-05-01T09:26:37.283Z,100503.42
2023-05-01T09:28:42.349Z,100514.05
2023-05-01T09:30:47.565Z,100492.32
2023-05-01T09:32:52.741Z,100494.36
2023-05-01T09:34:57.927Z,100500.73
2023-05-01T09:37:03.104Z,100488.58
2023-05-01T09:39:08.227Z,100493.72
2023-05-01T09:41:13.399Z,100491.18
2023-05-01T09:43:18.629Z,100494.72
2023-05-01T09:45:23.734Z,100493.38
2023-05-01T09:47:28.838Z,100492.45
2023-05-01T09:49:34.048Z,100494.28
2023-05-01T09:51:39.108Z,100482.72
2023-05-01T09:53:44.101Z,100475.23
2023-05-01T09:55:49.159Z,100482.33
2023-05-01T09:57:54.311Z,100489.83
2023-05-01T09:59:59.771Z,100478.91
2023-05-01T10:02:05.048Z,100463.33
2023-05-01T10:04:10.408Z,100461.95
2023-05-01T10:06:15.761Z,100456.75
2023-05-01T10:08:20.993Z,100458.24
2023-05-01T10:10:26.107Z,100465.88
2023-05-01T10:12:31.239Z,100460.64
2023-05-01T10:14:36.284Z,100461.94
2023-05-01T10:16:41.670Z,100449.58
2023-05-01T10:18:46.918Z,100451.76
2023-05-01T10:20:52.140Z,100448.59
2023-05-01T10:22:57.155Z,100444.56
2023-05-01T10:25:02.213Z,100440.03
2023-05-01T10:27:07.273Z,100434.48
2023-05-01T10:29:12.487Z,100434.53
2023-05-01T10:31:17.694Z,100428.28
2023-05-01T10:33:23.167Z,100427.15
2023-05-01T10:35:28.379Z,100423.34
2023-05-01T10:37:33.534Z,100412.67
2023-05-01T10:39:38.739Z,100420.05
2023-05-01T10:41:43.901Z,100414.94
2023-05-01T10:43:48.981Z,100411.1
2023-05-01T10:45:54.238Z,100415.66
2023-05-01T10:47:59.552Z,100396.64
2023-05-01T10:50:04.800Z,100401.95
2023-05-01T10:52:09.923Z,100402.91
2023-05-01T10:54:15.014Z,100405.66
2023-05-01T10:56:20.135Z,100394.16
2023-05-01T10:58:25.298Z,100405.61
2023-05-01T11:00:30.461Z,100400.58
2023-05-01T11:02:35.665Z,100388.98
2023-05-01T11:04:40.881Z,100389.16
2023-05-01T11:06:46.037Z,100386.08
2023-05-01T11:08:51.135Z,100401.95
2023-05-01T11:10:56.279Z,100388.97
2023-05-01T11:13:01.449Z,100380.61
2023-05-01T11:15:06.535Z,100376.36
2023-05-01T11:17:11.573Z,100373.91
2023-05-01T11:19:16.635Z,100379.52
2023-05-01T11:21:21.861Z,100375.27
2023-05-01T11:23:27.202Z,100370.41
2023-05-01T11:25:32.236Z,100363.47
2023-05-01T11:27:37.389Z,100359.27
2023-05-01T11:29:42.454Z,100353.91
2023-05-01T11:31:47.652Z,100349.91
2023-05-01T11:33:53.045Z,100341.67
2023-05-01T11:35:58.087Z,100339.28
2023-05-01T11:38:03.127Z,100338.12
2023-05-01T11:40:08.248Z,100336.45
2023-05-01T11:42:13.545Z,100337.03
2023-05-01T11:44:18.805Z,100323.38
2023-05-01T11:46:23.991Z,100315.27
2023-05-01T11:48:29.375Z,100325.76
2023-05-01T11:50:34.503Z,100311.07
2023-05-01T11:52:39.875Z,100318.84
2023-05-01T11:54:45.000Z,100310.48
2023-05-01T11:56:50.232Z,100309.88
2023-05-01T11:58:55.323Z,100311.28
2023-05-01T12:01:00.538Z,100304.78
2023-05-01T12:03:06.351Z,100302.59
2023-05-01T12:05:12.321Z,100298.6
2023-05-01T12:07:17.384Z,100304.55
2023-05-01T12:09:22.589Z,100298.47
2023-05-01T12:11:28.042Z,100300.27
2023-05-01T12:13:33.101Z,100293.39
2023-05-01T12:15:38.291Z,100300.3
2023-05-01T12:17:43.374Z,100295.03
2023-05-01T12:19:48.452Z,100284.42
2023-05-01T12:21:53.555Z,100286.48
2023-05-01T12:23:58.601Z,100290.8
2023-05-01T12:26:03.898Z,100279.32
2023-05-01T12:28:08.968Z,100275
2023-05-01T12:30:14.052Z,100273.23
2023-05-01T12:32:19.189Z,100266.87
2023-05-01T12:34:24.415Z,100258.67
2023-05-01T12:36:29.585Z,100255.09
2023-05-01T12:38:34.644Z,100257.16
2023-05-01T12:40:39.768Z,100246.59
2023-05-01T12:42:44.805Z,100256.7
2023-05-01T12:44:49.988Z,100254.38
2023-05-01T12:46:55.517Z,100243.91
2023-05-01T12:49:01.156Z,100242
2023-05-01T12:51:06.233Z,100245.13
2023-05-01T12:53:11.303Z,100217.7
2023-05-01T12:55:16.405Z,100228.19
2023-05-01T12:57:21.543Z,100211.08
2023-05-01T12:59:26.596Z,100212.27
2023-05-01T13:01:31.922Z,100212.34
2023-05-01T13:03:41.418Z,100214.2
2023-05-01T13:05:46.970Z,100215.5
2023-05-01T13:07:52.140Z,100202.45
2023-05-01T13:09:57.696Z,100200.27
2023-05-01T13:12:03.603Z,100210.5
2023-05-01T13:14:08.691Z,100196.48
2023-05-01T13:16:14.440Z,100208.7
2023-05-01T13:18:19.588Z,100198.44
2023-05-01T13:20:24.624Z,100193.42
2023-05-01T13:22:29.897Z,100185.01
2023-05-01T13:24:34.979Z,100183.34
2023-05-01T13:26:40.097Z,100180.59
2023-05-01T13:28:45.186Z,100178.38
2023-05-01T13:30:50.233Z,100180.23
2023-05-01T13:32:55.460Z,100188.31
2023-05-01T13:35:00.645Z,100163.73
2023-05-01T13:37:05.883Z,100165.22
2023-05-01T13:39:10.962Z,100161.39
2023-05-01T13:41:16.041Z,100166.67
2023-05-01T13:43:21.095Z,100161.24
2023-05-01T13:45:26.294Z,100164.15
2023-05-01T13:47:31.846Z,100149.63
2023-05-01T13:49:37.048Z,100146.66
2023-05-01T13:51:42.181Z,100150.95
2023-05-01T13:53:47.213Z,100147
2023-05-01T13:55:52.267Z,100142.55
2023-05-01T13:57:57.475Z,100152.49
2023-05-01T14:00:02.600Z,100136.56
2023-05-01T14:02:07.856Z,100134.44
2023-05-01T14:04:12.956Z,100134.48
2023-05-01T14:06:18.158Z,100129.28
2023-05-01T14:08:23.446Z,100126.56
2023-05-01T14:10:28.576Z,100112.41
2023-05-01T14:12:33.737Z,100126.3
2023-05-01T14:14:38.818Z,100112.77
2023-05-01T14:16:44.030Z,100118.09
2023-05-01T14:18:49.186Z,100113.44
2023-05-01T14:20:54.228Z,100102.44
2023-05-01T14:22:59.363Z,100109.44
2023-05-01T14:25:04.407Z,100110.61
2023-05-01T14:27:09.458Z,100100.62
2023-05-01T14:29:14.551Z,100097.52
2023-05-01T14:31:19.704Z,100090.49
2023-05-01T14:33:25.005Z,100088.31
2023-05-01T14:35:30.152Z,100089.12
2023-05-01T14:37:35.326Z,100079.48
2023-05-01T14:39:40.435Z,100082.09
2023-05-01T14:41:45.613Z,100073.23
2023-05-01T14:43:50.841Z,100074.45
2023-05-01T14:45:56.044Z,100069.63
2023-05-01T14:48:01.408Z,100064
2023-05-01T14:50:06.635Z,100061.54
2023-05-01T14:52:11.693Z,100062.25
2023-05-01T14:54:16.723Z,100069.78
2023-05-01T14:56:21.872Z,100056.17
2023-05-01T14:58:27.000Z,100053.18
2023-05-01T15:00:32.030Z,100055.27
2023-05-01T15:02:37.412Z,100055.44
2023-05-01T15:04:42.860Z,100054.34
2023-05-01T15:06:48.169Z,100059.35
2023-05-01T15:08:53.463Z,100046.38
2023-05-01T15:10:58.490Z,100040.42
2023-05-01T15:13:03.564Z,100042.79
2023-05-01T15:15:08.644Z,100046.42
2023-05-01T15:17:13.752Z,100039.55
2023-05-01T15:19:18.907Z,100042.59
2023-05-01T15:21:24.079Z,100035.19
2023-05-01T15:23:29.200Z,100039.13
2023-05-01T15:25:34.222Z,100045.55
2023-05-01T15:27:39.434Z,100033.23
2023-05-01T15:29:44.596Z,100033.74
2023-05-01T15:32:08.475Z,100034.48
2023-05-01T15:34:17.104Z,100041.41
2023-05-01T15:36:22.197Z,100030.52
2023-05-01T15:38:27.686Z,100016.69
2023-05-01T15:40:32.877Z,100028.45
2023-05-01T15:42:37.967Z,100027.55
2023-05-01T15:44:43.033Z,100028.76
2023-05-01T15:46:48.464Z,100017.25
2023-05-01T15:48:53.681Z,100017.22
2023-05-01T15:50:58.751Z,100017.14
2023-05-01T15:53:03.991Z,100008.99
2023-05-01T15:55:09.022Z,100012.78
2023-05-01T15:57:14.050Z,100009.8
2023-05-01T15:59:19.330Z,100011.98
2023-05-01T16:01:24.506Z,100009.15
2023-05-01T16:03:30.170Z,100003.14
2023-05-01T16:05:35.571Z,100004.14
2023-05-01T16:07:40.731Z,100007.3
2023-05-01T16:09:45.961Z,100006.58
2023-05-01T16:11:51.056Z,99999.56
2023-05-01T16:13:56.178Z,100003.83
2023-05-01T16:16:01.261Z,99996.15
2023-05-01T16:18:06.429Z,99997.46
2023-05-01T16:20:11.748Z,99999.05
2023-05-01T16:22:16.887Z,99994.98
2023-05-01T16:24:22.070Z,99994.28
2023-05-01T16:29:05.972Z,99988.05
2023-05-01T16:31:27.320Z,100004.72
2023-05-01T16:33:32.797Z,99987.78
2023-05-01T16:35:37.829Z,99983.11
2023-05-01T16:37:42.879Z,99983.33
2023-05-01T16:39:47.976Z,99986.22
2023-05-01T16:41:53.087Z,99981.67
2023-05-01T16:43:58.173Z,99983.02
2023-05-01T16:46:03.367Z,99985.61
2023-05-01T16:48:08.759Z,99982.94
2023-05-01T16:50:14.067Z,99983.8
2023-05-01T16:52:19.178Z,99980.34
2023-05-01T16:54:24.160Z,99982.45
2023-05-01T16:56:29.215Z,99979.21
2023-05-01T16:58:34.237Z,99984.28
2023-05-01T17:00:39.677Z,99975.42
2023-05-01T17:02:45.217Z,99980.12
2023-05-01T17:04:50.445Z,99978.52
2023-05-01T17:06:56.016Z,99980.41
2023-05-01T17:09:01.369Z,99983.59
2023-05-01T17:11:06.598Z,99983.09
2023-05-01T17:13:11.599Z,99980.22
2023-05-01T17:15:16.668Z,99980.95
2023-05-01T17:17:21.718Z,99976.67
2023-05-01T17:19:26.913Z,99977.36
2023-05-01T17:21:32.123Z,99976.06
2023-05-01T17:23:37.192Z,99976.28
2023-05-01T17:25:42.213Z,99971.52
2023-05-01T17:27:47.247Z,99977.25
2023-05-01T17:29:52.537Z,99972.72
2023-05-01T17:31:57.634Z,99966.98
2023-05-01T17:34:02.728Z,99970.56
2023-05-01T17:36:07.872Z,99967.31
2023-05-01T17:38:12.922Z,99965.93
2023-05-01T17:40:17.951Z,99963.95
2023-05-01T17:42:22.975Z,99967.48
2023-05-01T17:44:28.011Z,99963.81
2023-05-01T17:46:33.274Z,99967.7
2023-05-01T17:48:38.640Z,99968.63
2023-05-01T17:50:43.605Z,99966.2
2023-05-01T17:52:48.604Z,99968.91
2023-05-01T17:54:53.668Z,99966.03
2023-05-01T17:56:58.794Z,99962.85
2023-05-01T17:59:03.822Z,99964.23
2023-05-01T18:01:08.981Z,99965.2
2023-05-01T18:03:14.522Z,99964.17
2023-05-01T18:05:19.880Z,99967.7
2023-05-01T18:07:24.953Z,99965.36
2023-05-01T18:09:30.454Z,99964.66
2023-05-01T18:11:35.511Z,99965.5
2023-05-01T18:13:40.883Z,99967.25
2023-05-01T18:15:45.908Z,99957.88
2023-05-01T18:17:51.907Z,99965.95
2023-05-01T18:19:57.373Z,99969.56
2023-05-01T18:22:03.251Z,99969.22
2023-05-01T18:24:08.271Z,99970.11
2023-05-01T18:26:13.273Z,99971.64
2023-05-01T18:28:18.314Z,99974.66
2023-05-01T18:30:23.328Z,99976.74
2023-05-01T18:32:47.955Z,99973.52
2023-05-01T18:34:54.288Z,99970.51
2023-05-01T18:36:59.288Z,99976.47
2023-05-01T18:39:04.317Z,99977.08
2023-05-01T18:41:09.310Z,99973.84
2023-05-01T18:43:14.360Z,99977.14
2023-05-01T18:45:19.403Z,99976.19
2023-05-01T18:47:24.439Z,99984.19
2023-05-01T18:49:29.463Z,99984.43
2023-05-01T18:51:34.482Z,99987.38
2023-05-01T18:53:39.532Z,99989.18
2023-05-01T18:55:44.506Z,99991.48
2023-05-01T18:57:49.497Z,99987.3
2023-05-01T18:59:54.512Z,99987.38
2023-05-01T19:01:59.741Z,99990.5
2023-05-01T19:04:05.026Z,99990.44
2023-05-01T19:06:10.031Z,99989.6
2023-05-01T19:08:15.142Z,99983.78
2023-05-01T19:10:20.134Z,99990.34
2023-05-01T19:12:25.134Z,99981.48
2023-05-01T19:14:30.123Z,99986.66
2023-05-01T19:16:35.249Z,99989.77
2023-05-01T19:18:40.534Z,99984.53
2023-05-01T19:20:45.528Z,99987.7
2023-05-01T19:22:50.502Z,99987.02
2023-05-01T19:24:55.503Z,99985.97
2023-05-01T19:27:00.506Z,99985.86
2023-05-01T19:29:05.537Z,99990.38
2023-05-01T19:31:12.385Z,99994.2
2023-05-01T19:33:18.890Z,99991.03
2023-05-01T19:35:24.247Z,99990.67
2023-05-01T19:37:29.508Z,99982.55
2023-05-01T19:39:34.620Z,99988.92
2023-05-01T19:41:39.750Z,99990.23
2023-05-01T19:43:44.804Z,99989.7
2023-05-01T19:45:50.293Z,99988.3
2023-05-01T19:47:55.654Z,99987.78
2023-05-01T19:50:01.627Z,99994.64
2023-05-01T19:52:07.137Z,99989.13
2023-05-01T19:54:12.195Z,99992.23
2023-05-01T19:56:17.233Z,99990.36
2023-05-01T19:58:22.187Z,99993.3
2023-05-01T20:00:27.220Z,99985.34
2023-05-01T20:02:32.471Z,99984.66
2023-05-01T20:04:37.958Z,99984.59
2023-05-01T20:06:43.119Z,99983.44
2023-05-01T20:08:48.279Z,99978.96
2023-05-01T20:10:53.292Z,99985.48
2023-05-01T20:12:58.539Z,99981.49
2023-05-01T20:15:04.953Z,99981.4
2023-05-01T20:17:10.198Z,99983.94
2023-05-01T20:19:15.460Z,99981.34
2023-05-01T20:21:20.611Z,99978.3
2023-05-01T20:23:25.647Z,99973.55
2023-05-01T20:25:30.745Z,99967.2
2023-05-01T20:27:35.756Z,99969.85
2023-05-01T20:29:40.769Z,99967.36
2023-05-01T20:31:45.800Z,99968.8
2023-05-01T20:33:50.759Z,99972.72
2023-05-01T20:35:55.850Z,99975.08
2023-05-01T20:38:00.888Z,99974.73
2023-05-01T20:40:06.119Z,99969.67
2023-05-01T20:42:11.112Z,99975.56
2023-05-01T20:44:16.135Z,99975.13
2023-05-01T20:46:21.265Z,99976.13
2023-05-01T20:48:26.406Z,99973.91
2023-05-01T20:50:31.381Z,99972.61
2023-05-01T20:52:36.423Z,99974.02
2023-05-01T20:54:41.533Z,99970.27
2023-05-01T20:56:46.501Z,99965.61
2023-05-01T20:58:51.538Z,99966.77
2023-05-01T21:00:56.611Z,99961.75
2023-05-01T21:03:02.017Z,99965.67
2023-05-01T21:05:07.159Z,99965.95
2023-05-01T21:07:12.164Z,99967.69
2023-05-01T21:09:17.164Z,99967.42
2023-05-01T21:11:22.298Z,99967
2023-05-01T21:13:27.270Z,99965.75
2023-05-01T21:15:32.309Z,99964.09
2023-05-01T21:17:37.411Z,99970.19
2023-05-01T21:19:42.470Z,99972.17
2023-05-01T21:21:47.439Z,99968.38
2023-05-01T21:23:52.499Z,99972.36
2023-05-01T21:25:57.710Z,99977.67
2023-05-01T21:28:02.804Z,99973.11
2023-05-01T21:30:07.772Z,99974.63
2023-05-01T21:32:12.784Z,99974.9
2023-05-01T21:34:17.780Z,99974.17
2023-05-01T21:36:22.911Z,99975.75
2023-05-01T21:38:27.871Z,99972.64
2023-05-01T21:40:32.934Z,99968.71
2023-05-01T21:42:37.914Z,99962.45
2023-05-01T21:44:43.020Z,99972
2023-05-01T21:46:48.086Z,99974.78
2023-05-01T21:48:53.247Z,99974.38
2023-05-01T21:50:58.378Z,99975.67
2023-05-01T21:53:03.380Z,99975.81
2023-05-01T21:55:08.434Z,99974.08
2023-05-01T21:57:13.489Z,99974.08
2023-05-01T21:59:18.462Z,99972.47
2023-05-01T22:01:23.601Z,99974.13
2023-05-01T22:03:28.824Z,99974.14
2023-05-01T22:05:34.167Z,99973.95
2023-05-01T22:07:39.091Z,99974.93
2023-05-01T22:09:44.087Z,99975.02
2023-05-01T22:11:49.093Z,99978.96
2023-05-01T22:13:54.107Z,99977.25
2023-05-01T22:15:59.119Z,99973.96
2023-05-01T22:18:04.418Z,99972.67
2023-05-01T22:20:09.472Z,99970.63
2023-05-01T22:22:14.516Z,99975.55
2023-05-01T22:24:19.547Z,99972.88
2023-05-01T22:26:24.516Z,99973.52
2023-05-01T22:28:29.608Z,99969.55
2023-05-01T22:30:34.823Z,99967.41
2023-05-01T22:32:39.939Z,99965.44
2023-05-01T22:34:45.020Z,99964.06
2023-05-01T22:36:50.014Z,99964.47
2023-05-01T22:38:55.002Z,99961.84
2023-05-01T22:41:00.011Z,99958.98
2023-05-01T22:43:05.008Z,99959.94
2023-05-01T22:45:09.989Z,99961.41
2023-05-01T22:47:15.064Z,99963.12
2023-05-01T22:49:20.128Z,99968.52
2023-05-01T22:51:25.145Z,99965.63
2023-05-01T22:53:30.165Z,99963.17
2023-05-01T22:55:35.163Z,99959.59
2023-05-01T22:57:40.119Z,99957.88
2023-05-01T22:59:45.109Z,99959.38
2023-05-01T23:01:50.237Z,99955.25
2023-05-01T23:03:55.840Z,99958.81
2023-05-01T23:06:01.283Z,99956.98
2023-05-01T23:08:06.315Z,99961.64
2023-05-01T23:10:11.380Z,99960.91
2023-05-01T23:12:16.462Z,99960.09
2023-05-01T23:14:21.546Z,99957.48
2023-05-01T23:16:26.812Z,99956.05
2023-05-01T23:18:31.927Z,99958.25
2023-05-01T23:20:37.059Z,99952.5
2023-05-01T23:22:42.072Z,99955.83
2023-05-01T23:24:47.024Z,99952.19
2023-05-01T23:26:52.078Z,99952.19
2023-05-01T23:28:57.041Z,99948.42
2023-05-01T23:31:02.108Z,99946.69
2023-05-01T23:33:07.480Z,99947.52
2023-05-01T23:35:12.574Z,99947.65
2023-05-01T23:37:17.591Z,99948.87
2023-05-01T23:39:22.596Z,99949.45
2023-05-01T23:41:27.575Z,99946.96
2023-05-01T23:43:32.520Z,99944.22
2023-05-01T23:45:37.519Z,99942.64
2023-05-01T23:47:42.757Z,99942.19
2023-05-01T23:49:47.887Z,99938.2
2023-05-01T23:51:53.006Z,99939.52
2023-05-01T23:53:57.999Z,99940.4
2023-05-01T23:56:03.070Z,99937.53
2023-05-01T23:58:08.099Z,99936.56
